Terminal Aerodrome Forecast
Issued by NWS

Home | Current Version | Previous Version | Text Only | Print | Product List | Glossary On
Versions: 1 2 3 4 5 6 7 8 9 10 11 12 13 14 15 16 17 18 19 20 21
000
FTUS46 KLOX 291700 RRA
TAFSBA
TAF
KSBA 291740Z 2918/3018 16007KT P6SM SCT200
     FM292100 25010KT P6SM SCT200
     FM300200 VRB03KT P6SM SCT200
     FM301300 VRB03KT P6SM SCT004
     FM301730 16007KT P6SM SCT004=

USA.gov is the U.S. government's official web portal to all federal, state and local government web resources and services.